createdAt,value
2017-07-09T00:00:50.574Z,19.30
2017-07-09T00:03:18.076Z,16.57
2017-07-09T00:05:45.577Z,12.43
2017-07-09T00:08:13.077Z,16.07
2017-07-09T00:10:40.548Z,24.70
2017-07-09T00:13:08.196Z,19.83
2017-07-09T00:15:35.676Z,17.80
2017-07-09T00:18:03.149Z,24.77
2017-07-09T00:20:30.653Z,17.60
2017-07-09T00:22:58.140Z,14.50
2017-07-09T00:25:26.061Z,13.67
2017-07-09T00:27:53.534Z,12.77
2017-07-09T00:30:21.022Z,14.63
2017-07-09T00:32:48.520Z,13.60
2017-07-09T00:35:16.008Z,19.90
2017-07-09T00:37:43.511Z,17.80
2017-07-09T00:40:10.983Z,13.73
2017-07-09T00:42:38.485Z,19.83
2017-07-09T00:45:05.985Z,14.73
2017-07-09T00:47:33.463Z,20.97
2017-07-09T00:50:00.967Z,17.60
2017-07-09T00:52:28.441Z,12.53
2017-07-09T00:54:55.940Z,14.70
2017-07-09T00:57:23.421Z,17.77
2017-07-09T00:59:51.109Z,18.50
2017-07-09T01:02:18.593Z,21.67
2017-07-09T01:04:46.069Z,13.70
2017-07-09T01:07:13.722Z,16.13
2017-07-09T01:09:41.202Z,19.23
2017-07-09T01:12:08.677Z,17.53
2017-07-09T01:14:36.177Z,14.40
2017-07-09T01:17:03.690Z,13.37
2017-07-09T01:19:31.160Z,11.50
2017-07-09T01:21:58.644Z,12.70
2017-07-09T01:24:26.157Z,14.37
2017-07-09T01:26:53.650Z,19.77
2017-07-09T01:29:21.128Z,18.83
2017-07-09T01:31:48.650Z,16.53
2017-07-09T01:34:16.132Z,19.93
2017-07-09T01:36:43.613Z,26.83
2017-07-09T01:39:11.124Z,22.20
2017-07-09T01:41:38.611Z,19.00
2017-07-09T01:44:06.108Z,18.83
2017-07-09T01:46:33.603Z,26.73
2017-07-09T01:49:01.095Z,24.30
2017-07-09T01:51:28.599Z,30.67
2017-07-09T01:53:56.102Z,19.17
2017-07-09T01:56:23.582Z,23.00
2017-07-09T01:58:51.042Z,22.70
2017-07-09T02:01:18.522Z,17.67
2017-07-09T02:03:45.985Z,21.00
2017-07-09T02:06:13.477Z,22.30
2017-07-09T02:08:40.963Z,22.43
2017-07-09T02:11:08.422Z,26.67
2017-07-09T02:13:36.132Z,18.40
2017-07-09T02:16:03.615Z,21.30
2017-07-09T02:18:31.075Z,23.37
2017-07-09T02:20:58.560Z,17.73
2017-07-09T02:23:26.047Z,20.17
2017-07-09T02:25:53.542Z,22.40
2017-07-09T02:28:21.007Z,20.93
2017-07-09T02:30:48.469Z,25.73
2017-07-09T02:33:15.955Z,21.90
2017-07-09T02:35:43.448Z,17.53
2017-07-09T02:38:10.910Z,22.53
2017-07-09T02:40:38.391Z,22.63
2017-07-09T02:43:05.836Z,25.10
2017-07-09T02:45:33.350Z,30.00
2017-07-09T02:48:00.818Z,41.23
2017-07-09T02:50:28.310Z,33.03
2017-07-09T02:52:55.778Z,31.03
2017-07-09T02:55:23.257Z,42.33
2017-07-09T02:57:50.743Z,35.73
2017-07-09T03:00:18.217Z,30.37
2017-07-09T03:02:45.742Z,44.93
2017-07-09T03:05:13.239Z,46.50
2017-07-09T03:07:40.701Z,78.40
2017-07-09T03:10:08.159Z,85.43
2017-07-09T03:12:35.641Z,64.57
2017-07-09T03:15:03.094Z,62.60
2017-07-09T03:17:30.703Z,110.00
2017-07-09T03:19:58.167Z,88.03
2017-07-09T03:22:25.629Z,105.13
2017-07-09T03:24:53.123Z,107.10
2017-07-09T03:27:20.609Z,92.73
2017-07-09T03:29:48.074Z,98.83
2017-07-09T03:32:15.550Z,98.17
2017-07-09T03:34:43.031Z,63.17
2017-07-09T03:37:10.508Z,81.20
2017-07-09T03:39:37.985Z,82.40
2017-07-09T03:42:05.449Z,84.03
2017-07-09T03:44:32.936Z,84.00
2017-07-09T03:47:00.399Z,63.53
2017-07-09T03:49:28.294Z,52.10
2017-07-09T03:51:55.762Z,56.30
2017-07-09T03:54:23.222Z,63.07
2017-07-09T03:56:50.697Z,69.20
2017-07-09T03:59:18.164Z,83.20
2017-07-09T04:01:45.902Z,74.73
2017-07-09T04:04:13.366Z,119.40
2017-07-09T04:06:40.836Z,71.23
2017-07-09T04:09:08.326Z,61.60
2017-07-09T04:11:35.797Z,58.13
2017-07-09T04:14:03.282Z,50.37
2017-07-09T04:16:30.746Z,47.43
2017-07-09T04:18:58.425Z,58.10
2017-07-09T04:21:25.891Z,56.80
2017-07-09T04:23:53.357Z,46.97
2017-07-09T04:26:20.856Z,45.97
2017-07-09T04:28:48.346Z,55.40
2017-07-09T04:31:15.806Z,64.50
2017-07-09T04:33:43.292Z,43.13
2017-07-09T04:36:10.774Z,46.67
2017-07-09T04:38:38.244Z,46.03
2017-07-09T04:41:05.761Z,34.17
2017-07-09T04:43:33.220Z,37.30
2017-07-09T04:46:00.673Z,34.63
2017-07-09T04:48:28.155Z,28.83
2017-07-09T04:50:55.654Z,32.13
2017-07-09T04:53:23.115Z,31.33
2017-07-09T04:55:50.611Z,30.03
2017-07-09T04:58:18.077Z,46.17
2017-07-09T05:00:45.557Z,39.70
2017-07-09T05:03:13.018Z,46.47
2017-07-09T05:05:40.518Z,35.57
2017-07-09T05:08:07.999Z,42.33
2017-07-09T05:10:35.491Z,41.83
2017-07-09T05:13:02.981Z,39.97
2017-07-09T05:15:30.459Z,51.93
2017-07-09T05:17:57.954Z,46.63
2017-07-09T05:20:25.419Z,52.87
2017-07-09T05:22:52.914Z,51.47
2017-07-09T05:25:20.371Z,52.40
2017-07-09T05:27:47.834Z,56.47
2017-07-09T05:30:15.328Z,56.43
2017-07-09T05:32:42.844Z,56.10
2017-07-09T05:35:10.316Z,60.03
2017-07-09T05:37:38.076Z,46.50
2017-07-09T05:40:05.570Z,55.03
2017-07-09T05:42:33.029Z,43.50
2017-07-09T05:45:00.528Z,36.73
2017-07-09T05:47:27.990Z,32.67
2017-07-09T05:49:55.469Z,35.73
2017-07-09T05:52:22.930Z,30.83
2017-07-09T05:54:50.421Z,28.80
2017-07-09T05:57:17.886Z,22.70
2017-07-09T05:59:45.379Z,33.20
2017-07-09T06:02:12.848Z,31.13
2017-07-09T06:04:40.338Z,26.90
2017-07-09T06:07:07.798Z,34.20
2017-07-09T06:09:35.294Z,25.77
2017-07-09T06:12:02.775Z,35.30
2017-07-09T06:14:30.254Z,25.87
2017-07-09T06:16:57.737Z,31.10
2017-07-09T06:19:25.199Z,19.27
2017-07-09T06:21:52.707Z,22.73
2017-07-09T06:24:20.167Z,37.90
2017-07-09T06:26:47.646Z,38.23
2017-07-09T06:29:15.126Z,29.50
2017-07-09T06:31:42.597Z,28.57
2017-07-09T06:34:10.111Z,18.43
2017-07-09T06:36:37.576Z,20.43
2017-07-09T06:39:05.043Z,21.50
2017-07-09T06:41:32.526Z,26.00
2017-07-09T06:43:59.998Z,44.23
2017-07-09T06:46:27.494Z,32.23
2017-07-09T06:48:54.955Z,45.53
2017-07-09T06:51:22.455Z,19.47
2017-07-09T06:53:49.919Z,26.30
2017-07-09T06:56:17.400Z,21.47
2017-07-09T06:58:45.171Z,28.90
2017-07-09T07:01:12.666Z,25.00
2017-07-09T07:03:40.128Z,25.60
2017-07-09T07:06:07.628Z,19.97
2017-07-09T07:08:35.085Z,19.10
2017-07-09T07:11:02.583Z,17.70
2017-07-09T07:13:30.231Z,26.23
2017-07-09T07:15:57.709Z,15.53
2017-07-09T07:18:25.167Z,17.23
2017-07-09T07:20:52.657Z,16.87
2017-07-09T07:23:20.138Z,16.70
2017-07-09T07:25:47.610Z,13.60
2017-07-09T07:28:15.090Z,15.93
2017-07-09T07:30:42.586Z,17.63
2017-07-09T07:33:10.047Z,19.03
2017-07-09T07:35:37.530Z,19.30
2017-07-09T07:38:05.048Z,14.47
2017-07-09T07:40:32.512Z,19.30
2017-07-09T07:42:59.975Z,11.47
2017-07-09T07:45:27.453Z,14.00
2017-07-09T07:47:54.923Z,19.33
2017-07-09T07:50:22.405Z,17.87
2017-07-09T07:52:49.882Z,16.10
2017-07-09T07:55:17.370Z,17.30
2017-07-09T07:57:44.873Z,12.50
2017-07-09T08:00:12.334Z,11.80
2017-07-09T08:02:39.802Z,18.60
2017-07-09T08:05:07.307Z,18.60
2017-07-09T08:07:34.778Z,18.20
2017-07-09T08:10:02.283Z,24.20
2017-07-09T08:12:29.740Z,16.70
2017-07-09T08:14:57.218Z,15.67
2017-07-09T08:17:24.679Z,16.90
2017-07-09T08:19:52.183Z,14.73
2017-07-09T08:22:19.641Z,20.20
2017-07-09T08:24:47.110Z,14.30
2017-07-09T08:27:14.598Z,10.97
2017-07-09T08:29:42.057Z,14.70
2017-07-09T08:32:09.527Z,18.13
2017-07-09T08:34:37.003Z,17.50
2017-07-09T08:37:04.487Z,10.23
2017-07-09T08:39:31.945Z,14.77
2017-07-09T08:41:59.443Z,15.97
2017-07-09T08:44:26.914Z,10.90
2017-07-09T08:46:54.403Z,6.13
2017-07-09T08:49:21.880Z,8.13
2017-07-09T08:51:49.391Z,16.00
2017-07-09T08:54:16.858Z,10.13
2017-07-09T08:56:44.310Z,8.03
2017-07-09T08:59:11.786Z,9.00
2017-07-09T09:01:39.238Z,6.03
2017-07-09T09:04:06.727Z,9.20
2017-07-09T09:06:34.183Z,9.43
2017-07-09T09:09:01.639Z,9.70
2017-07-09T09:11:29.140Z,14.93
2017-07-09T09:13:56.614Z,9.80
2017-07-09T09:16:24.068Z,11.37
2017-07-09T09:18:51.572Z,11.90
2017-07-09T09:21:19.037Z,9.40
2017-07-09T09:23:46.498Z,6.57
2017-07-09T09:26:13.978Z,14.33
2017-07-09T09:28:41.428Z,9.03
2017-07-09T09:31:08.911Z,7.03
2017-07-09T09:33:36.373Z,9.93
2017-07-09T09:36:03.854Z,8.23
2017-07-09T09:38:31.345Z,6.20
2017-07-09T09:40:58.838Z,8.90
2017-07-09T09:43:26.315Z,11.73
2017-07-09T09:45:53.796Z,7.43
2017-07-09T09:48:21.302Z,12.80
2017-07-09T09:50:48.772Z,10.53
2017-07-09T09:53:16.238Z,12.57
2017-07-09T10:02:26.948Z,14.63
2017-07-09T10:04:54.410Z,14.30
2017-07-09T10:07:21.899Z,5.80
2017-07-09T10:09:49.410Z,10.43
2017-07-09T10:12:16.873Z,7.63
2017-07-09T10:14:44.326Z,9.97
2017-07-09T10:17:11.826Z,10.80
2017-07-09T10:19:39.286Z,9.00
2017-07-09T10:22:06.775Z,10.27
2017-07-09T10:24:34.238Z,9.97
2017-07-09T10:27:01.742Z,11.80
2017-07-09T10:29:29.227Z,10.50
2017-07-09T10:31:56.706Z,5.50
2017-07-09T10:34:24.210Z,10.40
2017-07-09T10:36:51.719Z,11.83
2017-07-09T10:39:19.178Z,9.53
2017-07-09T10:41:46.691Z,8.67
2017-07-09T10:44:14.149Z,6.93
2017-07-09T10:46:41.607Z,7.83
2017-07-09T10:49:09.101Z,11.30
2017-07-09T10:51:36.703Z,11.30
2017-07-09T10:54:04.154Z,4.50
2017-07-09T10:56:31.614Z,8.57
2017-07-09T10:58:59.110Z,3.00
2017-07-09T11:01:26.594Z,5.93
2017-07-09T11:03:54.042Z,5.07
2017-07-09T11:06:21.761Z,6.20
2017-07-09T11:08:49.273Z,4.23
2017-07-09T11:11:16.687Z,17.30
2017-07-09T11:13:44.166Z,9.57
2017-07-09T11:16:11.623Z,13.23
2017-07-09T11:18:39.107Z,3.60
2017-07-09T11:21:06.599Z,8.43
2017-07-09T11:23:34.064Z,12.17
2017-07-09T11:26:01.548Z,14.23
2017-07-09T11:28:29.019Z,14.40
2017-07-09T11:30:56.479Z,10.97
2017-07-09T11:33:24.166Z,4.00
2017-07-09T11:35:51.631Z,7.00
2017-07-09T11:38:19.094Z,9.23
2017-07-09T11:40:46.802Z,9.63
2017-07-09T11:43:14.255Z,8.20
2017-07-09T11:45:41.711Z,8.33
2017-07-09T11:48:09.183Z,10.67
2017-07-09T11:50:36.946Z,7.70
2017-07-09T11:53:04.404Z,7.80
2017-07-09T11:55:31.884Z,10.90
2017-07-09T11:57:59.358Z,11.50
2017-07-09T12:00:26.845Z,6.40
2017-07-09T12:02:54.568Z,15.70
2017-07-09T12:05:22.042Z,8.57
2017-07-09T12:07:49.503Z,11.20
2017-07-09T12:10:16.985Z,6.03
2017-07-09T12:12:44.446Z,14.80
2017-07-09T12:15:11.927Z,12.63
2017-07-09T12:17:39.379Z,9.63
2017-07-09T12:20:06.870Z,9.07
2017-07-09T12:22:34.330Z,10.97
2017-07-09T12:25:01.789Z,5.63
2017-07-09T12:27:29.241Z,8.97
2017-07-09T12:29:56.719Z,12.60
2017-07-09T12:32:24.165Z,7.43
2017-07-09T12:34:51.648Z,11.77
2017-07-09T12:37:19.133Z,10.60
2017-07-09T12:39:46.590Z,10.90
2017-07-09T12:42:14.077Z,8.20
2017-07-09T12:44:41.531Z,6.13
2017-07-09T12:47:08.988Z,7.70
2017-07-09T12:49:36.463Z,7.57
2017-07-09T12:52:03.915Z,6.13
2017-07-09T12:54:31.523Z,4.27
2017-07-09T12:56:58.978Z,6.60
2017-07-09T12:59:26.433Z,11.03
2017-07-09T13:01:53.904Z,4.53
2017-07-09T13:04:21.364Z,7.03
2017-07-09T13:06:48.868Z,4.60
2017-07-09T13:09:16.329Z,5.17
2017-07-09T13:11:43.812Z,4.40
2017-07-09T13:14:11.273Z,5.80
2017-07-09T13:16:38.839Z,7.87
2017-07-09T13:19:06.293Z,6.10
2017-07-09T13:21:33.898Z,6.40
2017-07-09T13:24:01.378Z,4.53
2017-07-09T13:26:28.861Z,9.70
2017-07-09T13:28:56.585Z,13.90
2017-07-09T13:31:24.044Z,10.33
2017-07-09T13:33:51.507Z,3.90
2017-07-09T13:36:18.994Z,6.43
2017-07-09T13:38:46.448Z,2.90
2017-07-09T13:41:14.190Z,4.93
2017-07-09T13:43:41.656Z,2.90
2017-07-09T13:46:09.110Z,8.13
2017-07-09T13:48:36.591Z,3.10
2017-07-09T13:51:04.047Z,5.70
2017-07-09T13:53:31.506Z,7.57
2017-07-09T13:55:58.987Z,4.40
2017-07-09T13:58:26.444Z,5.47
2017-07-09T14:00:54.175Z,4.60
2017-07-09T14:03:21.639Z,8.47
2017-07-09T14:05:49.098Z,4.37
2017-07-09T14:08:16.588Z,10.43
2017-07-09T14:10:44.054Z,4.60
2017-07-09T14:13:11.535Z,2.13
2017-07-09T14:15:39.002Z,5.60
2017-07-09T14:18:06.463Z,6.13
2017-07-09T14:20:33.947Z,2.90
2017-07-09T14:23:01.417Z,2.30
2017-07-09T14:25:29.087Z,6.27
2017-07-09T14:27:56.541Z,4.57
2017-07-09T14:30:24.018Z,5.60
2017-07-09T14:32:51.495Z,3.47
2017-07-09T14:35:18.947Z,3.00
2017-07-09T14:37:46.428Z,5.07
2017-07-09T14:40:13.899Z,4.47
2017-07-09T14:42:41.350Z,8.07
2017-07-09T14:45:09.061Z,4.60
2017-07-09T14:47:36.520Z,4.73
2017-07-09T14:50:03.975Z,4.70
2017-07-09T14:52:31.613Z,4.20
2017-07-09T14:54:59.074Z,2.30
2017-07-09T14:57:26.527Z,2.70
2017-07-09T14:59:54.127Z,5.90
2017-07-09T15:02:21.583Z,9.63
2017-07-09T15:04:49.043Z,3.07
2017-07-09T15:07:16.811Z,3.33
2017-07-09T15:09:44.274Z,4.90
2017-07-09T15:12:11.757Z,2.50
2017-07-09T15:14:39.244Z,2.70
2017-07-09T15:17:06.739Z,4.13
2017-07-09T15:19:34.230Z,3.47
2017-07-09T15:22:01.706Z,4.73
2017-07-09T15:24:29.165Z,4.93
2017-07-09T15:26:56.646Z,3.43
2017-07-09T15:29:24.204Z,2.20
2017-07-09T15:31:51.684Z,2.90
2017-07-09T15:34:19.269Z,7.53
2017-07-09T15:36:46.737Z,2.83
2017-07-09T15:39:14.224Z,4.47
2017-07-09T15:41:41.691Z,8.53
2017-07-09T15:44:09.198Z,4.23
2017-07-09T15:46:36.642Z,4.93
2017-07-09T15:49:04.127Z,10.23
2017-07-09T15:51:31.622Z,3.23
2017-07-09T15:53:59.074Z,6.23
2017-07-09T15:56:26.540Z,3.67
2017-07-09T15:58:54.021Z,3.43
2017-07-09T16:01:21.471Z,8.53
2017-07-09T16:03:48.967Z,8.10
2017-07-09T16:06:16.422Z,9.43
2017-07-09T16:08:43.894Z,4.20
2017-07-09T16:11:11.382Z,6.67
2017-07-09T16:13:38.847Z,13.50
2017-07-09T16:16:06.333Z,3.20
2017-07-09T16:18:33.786Z,9.53
2017-07-09T16:21:01.279Z,10.90
2017-07-09T16:23:28.766Z,38.53
2017-07-09T16:25:56.232Z,14.10
2017-07-09T16:28:23.692Z,4.80
2017-07-09T16:30:51.158Z,4.80
2017-07-09T16:33:18.634Z,16.20
2017-07-09T16:35:46.103Z,8.73
2017-07-09T16:38:13.565Z,10.77
2017-07-09T16:40:41.068Z,11.10
2017-07-09T16:43:08.517Z,6.97
2017-07-09T16:45:35.977Z,2.70
2017-07-09T16:48:03.453Z,7.23
2017-07-09T16:50:30.928Z,4.00
2017-07-09T16:52:58.418Z,4.80
2017-07-09T16:55:25.886Z,6.57
2017-07-09T16:57:53.375Z,5.03
2017-07-09T17:00:20.843Z,4.77
2017-07-09T17:02:48.321Z,8.03
2017-07-09T17:05:15.797Z,5.03
2017-07-09T17:07:43.251Z,5.50
2017-07-09T17:10:10.758Z,13.60
2017-07-09T17:12:38.227Z,7.40
2017-07-09T17:15:05.702Z,8.43
2017-07-09T17:17:33.162Z,9.70
2017-07-09T17:20:00.686Z,7.33
2017-07-09T17:22:28.145Z,14.67
2017-07-09T17:24:55.617Z,18.40
2017-07-09T17:27:23.105Z,16.60
2017-07-09T17:29:50.568Z,9.63
2017-07-09T17:32:18.043Z,8.00
2017-07-09T17:34:45.503Z,12.17
2017-07-09T17:37:12.997Z,8.40
2017-07-09T17:39:40.447Z,8.23
2017-07-09T17:42:07.897Z,7.10
2017-07-09T17:44:35.391Z,11.77
2017-07-09T17:47:02.850Z,29.63
2017-07-09T17:49:30.364Z,79.97
2017-07-09T17:51:57.830Z,27.80
2017-07-09T17:54:25.295Z,72.63
2017-07-09T17:56:52.875Z,22.57
2017-07-09T17:59:20.331Z,15.37
2017-07-09T18:01:47.798Z,16.00
2017-07-09T18:04:15.271Z,11.67
2017-07-09T18:06:42.782Z,8.67
2017-07-09T18:09:10.279Z,17.47
2017-07-09T18:11:38.150Z,7.20
2017-07-09T18:14:05.602Z,16.60
2017-07-09T18:16:33.070Z,17.30
2017-07-09T18:19:00.558Z,15.30
2017-07-09T18:21:28.031Z,10.50
2017-07-09T18:23:55.758Z,8.70
2017-07-09T18:26:23.207Z,9.90
2017-07-09T18:28:50.728Z,7.47
2017-07-09T18:31:18.210Z,21.30
2017-07-09T18:33:45.680Z,13.73
2017-07-09T18:36:13.376Z,9.10
2017-07-09T18:38:40.843Z,13.67
2017-07-09T18:41:08.298Z,12.20
2017-07-09T18:43:35.799Z,11.43
2017-07-09T18:46:03.281Z,12.10
2017-07-09T18:48:30.742Z,11.83
2017-07-09T18:50:58.222Z,10.50
2017-07-09T18:53:25.738Z,11.23
2017-07-09T18:55:53.205Z,13.13
2017-07-09T18:58:20.678Z,15.53
2017-07-09T19:00:48.156Z,8.67
2017-07-09T19:03:15.614Z,9.57
2017-07-09T19:05:43.207Z,14.93
2017-07-09T19:08:10.673Z,12.67
2017-07-09T19:10:38.164Z,16.83
2017-07-09T19:13:05.701Z,20.97
2017-07-09T19:15:33.170Z,14.50
2017-07-09T19:18:00.717Z,19.73
2017-07-09T19:20:28.205Z,16.63
2017-07-09T19:22:55.680Z,18.77
2017-07-09T19:25:23.215Z,13.10
2017-07-09T19:27:50.749Z,20.03
2017-07-09T19:30:18.264Z,19.77
2017-07-09T19:32:45.780Z,30.13
2017-07-09T19:35:13.648Z,26.40
2017-07-09T19:37:41.142Z,30.70
2017-07-09T19:40:08.794Z,37.77
2017-07-09T19:42:36.309Z,22.27
2017-07-09T19:45:03.790Z,28.13
2017-07-09T19:47:31.590Z,20.77
2017-07-09T19:49:59.254Z,20.30
2017-07-09T19:52:26.873Z,14.20
2017-07-09T19:54:54.395Z,23.23
2017-07-09T19:57:21.899Z,15.67
2017-07-09T19:59:49.400Z,11.63
2017-07-09T20:02:16.884Z,19.73
2017-07-09T20:04:44.378Z,17.17
2017-07-09T20:07:12.213Z,23.93
2017-07-09T20:09:39.704Z,16.23
2017-07-09T20:12:07.248Z,18.33
2017-07-09T20:14:34.722Z,19.03
2017-07-09T20:17:03.091Z,18.63
2017-07-09T20:19:30.578Z,10.83
2017-07-09T20:21:58.057Z,11.50
2017-07-09T20:24:25.543Z,17.70
2017-07-09T20:26:53.043Z,12.57
2017-07-09T20:29:20.500Z,16.90
2017-07-09T20:31:47.959Z,22.30
2017-07-09T20:34:15.450Z,18.30
2017-07-09T20:36:42.916Z,16.70
2017-07-09T20:39:10.403Z,14.30
2017-07-09T20:41:37.874Z,15.03
2017-07-09T20:44:05.364Z,17.13
2017-07-09T20:46:32.822Z,22.30
2017-07-09T20:49:00.488Z,20.63
2017-07-09T20:51:27.986Z,13.23
2017-07-09T20:53:55.767Z,15.30
2017-07-09T20:56:23.505Z,25.13
2017-07-09T20:58:50.969Z,17.60
2017-07-09T21:01:18.434Z,23.30
2017-07-09T21:03:46.196Z,17.37
2017-07-09T21:06:13.664Z,19.70
2017-07-09T21:08:41.119Z,19.00
2017-07-09T21:11:08.606Z,20.20
2017-07-09T21:13:36.073Z,20.67
2017-07-09T21:16:03.654Z,20.70
2017-07-09T21:18:31.107Z,24.10
2017-07-09T21:20:58.585Z,27.40
2017-07-09T21:23:26.073Z,17.10
2017-07-09T21:25:53.543Z,15.03
2017-07-09T21:28:21.015Z,21.50
2017-07-09T21:30:48.510Z,19.70
2017-07-09T21:33:16.314Z,17.30
2017-07-09T21:35:43.769Z,16.50
2017-07-09T21:38:11.234Z,18.07
2017-07-09T21:40:38.714Z,20.80
2017-07-09T21:43:06.205Z,20.93
2017-07-09T21:45:33.670Z,24.93
2017-07-09T21:48:01.158Z,19.80
2017-07-09T21:50:28.643Z,21.17
2017-07-09T21:52:56.115Z,15.30
2017-07-09T21:55:23.596Z,15.80
2017-07-09T21:57:51.087Z,17.03
2017-07-09T22:00:18.583Z,26.00
2017-07-09T22:02:46.046Z,24.07
2017-07-09T22:05:13.549Z,20.07
2017-07-09T22:07:41.023Z,27.87
2017-07-09T22:10:08.497Z,27.53
2017-07-09T22:12:35.959Z,15.40
2017-07-09T22:15:03.754Z,23.50
2017-07-09T22:17:31.220Z,16.67
2017-07-09T22:19:58.682Z,16.80
2017-07-09T22:22:26.166Z,27.00
2017-07-09T22:24:53.627Z,14.63
2017-07-09T22:27:21.108Z,13.60
2017-07-09T22:29:48.596Z,19.30
2017-07-09T22:32:16.051Z,19.93
2017-07-09T22:34:43.547Z,17.97
2017-07-09T22:37:11.159Z,17.27
2017-07-09T22:39:38.618Z,18.10
2017-07-09T22:42:06.083Z,23.40
2017-07-09T22:44:33.595Z,16.70
2017-07-09T22:47:01.057Z,23.50
2017-07-09T22:49:28.513Z,18.23
2017-07-09T22:51:55.989Z,13.10
2017-07-09T22:54:23.471Z,15.53
2017-07-09T22:56:50.937Z,18.23
2017-07-09T22:59:18.422Z,23.10
2017-07-09T23:01:45.883Z,13.77
2017-07-09T23:04:13.366Z,17.63
2017-07-09T23:06:40.843Z,18.93
2017-07-09T23:09:08.337Z,13.60
2017-07-09T23:11:35.828Z,18.90
2017-07-09T23:14:03.279Z,12.40
2017-07-09T23:16:30.761Z,13.90
2017-07-09T23:18:58.229Z,24.40
2017-07-09T23:21:25.731Z,21.87
2017-07-09T23:23:53.188Z,18.13
2017-07-09T23:26:20.651Z,15.40
2017-07-09T23:28:48.146Z,23.93
2017-07-09T23:31:15.631Z,17.50
2017-07-09T23:33:43.138Z,20.87
2017-07-09T23:36:10.603Z,23.47
2017-07-09T23:38:38.063Z,31.47
2017-07-09T23:41:05.561Z,21.37
2017-07-09T23:43:33.038Z,20.77
2017-07-09T23:46:00.497Z,17.57
2017-07-09T23:48:27.977Z,20.07
2017-07-09T23:50:55.466Z,20.87
2017-07-09T23:53:22.951Z,20.67
2017-07-09T23:55:50.415Z,14.80
2017-07-09T23:58:17.895Z,23.83
